createdAt,value
2016-09-21T00:00:47.133Z,0.00
2016-09-21T00:01:47.495Z,0.00
2016-09-21T00:02:48.007Z,0.00
2016-09-21T00:03:48.518Z,0.00
2016-09-21T00:04:49.183Z,0.00
2016-09-21T00:05:49.543Z,0.00
2016-09-21T00:06:50.055Z,0.00
2016-09-21T00:07:50.718Z,0.00
2016-09-21T00:08:51.078Z,0.00
2016-09-21T00:09:51.589Z,0.00
2016-09-21T00:10:52.102Z,0.00
2016-09-21T00:11:52.613Z,0.00
2016-09-21T00:12:53.139Z,0.00
2016-09-21T00:13:53.796Z,0.00
2016-09-21T00:14:54.302Z,0.00
2016-09-21T00:15:54.664Z,0.00
2016-09-21T00:16:55.178Z,0.00
2016-09-21T00:17:55.685Z,0.00
2016-09-21T00:18:56.205Z,0.00
2016-09-21T00:19:56.864Z,0.00
2016-09-21T00:20:57.229Z,0.00
2016-09-21T00:21:57.743Z,0.00
2016-09-21T00:22:58.255Z,0.00
2016-09-21T00:23:58.770Z,0.00
2016-09-21T00:24:59.436Z,0.00
2016-09-21T00:25:59.798Z,0.00
2016-09-21T00:27:00.317Z,0.00
2016-09-21T00:28:00.829Z,0.00
2016-09-21T00:29:01.343Z,0.00
2016-09-21T00:30:01.860Z,0.00
2016-09-21T00:31:02.368Z,0.00
2016-09-21T00:32:02.879Z,0.00
2016-09-21T00:33:03.385Z,0.00
2016-09-21T00:34:03.897Z,0.00
2016-09-21T00:35:04.411Z,0.00
2016-09-21T00:36:06.871Z,0.00
2016-09-21T00:37:05.431Z,0.00
2016-09-21T00:38:05.942Z,0.00
2016-09-21T00:39:06.602Z,0.00
2016-09-21T00:40:06.965Z,0.00
2016-09-21T00:41:07.691Z,0.00
2016-09-21T00:42:08.138Z,0.00
2016-09-21T00:43:08.500Z,0.00
2016-09-21T00:44:09.019Z,0.00
2016-09-21T00:45:09.524Z,0.00
2016-09-21T00:46:10.035Z,0.00
2016-09-21T00:47:10.546Z,0.00
2016-09-21T00:48:11.072Z,0.00
2016-09-21T00:49:11.574Z,0.00
2016-09-21T00:50:12.089Z,0.00
2016-09-21T00:51:12.747Z,0.00
2016-09-21T00:52:13.104Z,0.00
2016-09-21T00:53:13.612Z,0.00
2016-09-21T00:54:14.126Z,0.00
2016-09-21T00:55:14.633Z,0.00
2016-09-21T00:56:15.144Z,0.00
2016-09-21T00:57:15.655Z,0.00
2016-09-21T00:58:16.172Z,0.00
2016-09-21T00:59:16.830Z,0.00
2016-09-21T01:00:17.344Z,0.00
2016-09-21T01:01:17.705Z,0.00
2016-09-21T01:02:18.224Z,0.00
2016-09-21T01:03:18.735Z,0.00
2016-09-21T01:04:19.252Z,0.00
2016-09-21T01:05:19.769Z,0.00
2016-09-21T01:06:20.283Z,0.00
2016-09-21T01:07:20.798Z,0.00
2016-09-21T01:08:21.463Z,0.00
2016-09-21T01:09:21.971Z,0.00
2016-09-21T01:10:22.336Z,0.00
2016-09-21T01:11:22.845Z,0.00
2016-09-21T01:12:23.360Z,0.00
2016-09-21T01:13:23.869Z,0.00
2016-09-21T01:14:24.378Z,0.00
2016-09-21T01:15:24.891Z,0.00
2016-09-21T01:16:25.408Z,0.00
2016-09-21T01:17:26.066Z,0.00
2016-09-21T01:18:26.425Z,0.00
2016-09-21T01:19:26.939Z,0.00
2016-09-21T01:20:27.458Z,0.00
2016-09-21T01:21:28.130Z,0.00
2016-09-21T01:22:28.629Z,0.00
2016-09-21T01:23:29.010Z,0.00
2016-09-21T01:24:29.525Z,0.00
2016-09-21T01:25:30.016Z,0.00
2016-09-21T01:26:30.674Z,0.00
2016-09-21T01:27:31.042Z,0.00
2016-09-21T01:28:31.549Z,0.00
2016-09-21T01:29:32.069Z,0.00
2016-09-21T01:30:32.591Z,0.00
2016-09-21T01:31:33.243Z,0.00
2016-09-21T01:32:33.604Z,0.00
2016-09-21T01:33:34.141Z,0.00
2016-09-21T01:34:34.625Z,0.00
2016-09-21T01:35:35.140Z,0.00
2016-09-21T01:36:35.660Z,0.00
2016-09-21T01:37:36.165Z,0.00
2016-09-21T01:38:36.682Z,0.00
2016-09-21T01:39:37.196Z,0.00
2016-09-21T01:40:37.734Z,0.00
2016-09-21T01:41:38.232Z,0.00
2016-09-21T01:42:39.047Z,0.00
2016-09-21T01:43:39.268Z,0.00
2016-09-21T01:44:39.772Z,0.00
2016-09-21T01:45:40.436Z,0.00
2016-09-21T01:46:40.803Z,0.00
2016-09-21T01:47:41.311Z,0.00
2016-09-21T01:48:42.118Z,0.00
2016-09-21T01:49:42.333Z,0.00
2016-09-21T01:50:42.989Z,0.00
2016-09-21T01:51:43.350Z,0.00
2016-09-21T01:52:44.009Z,0.00
2016-09-21T01:53:44.371Z,0.00
2016-09-21T01:54:44.883Z,0.00
2016-09-21T01:55:45.393Z,0.00
2016-09-21T01:56:46.053Z,0.00
2016-09-21T01:57:46.569Z,0.00
2016-09-21T01:58:46.932Z,0.00
2016-09-21T01:59:47.443Z,0.00
2016-09-21T02:00:47.953Z,0.00
2016-09-21T02:01:48.471Z,0.00
2016-09-21T02:02:48.980Z,0.00
2016-09-21T02:03:49.493Z,0.00
2016-09-21T02:04:50.032Z,0.00
2016-09-21T02:05:50.518Z,0.00
2016-09-21T02:06:51.185Z,0.00
2016-09-21T02:07:51.545Z,0.00
2016-09-21T02:08:52.216Z,0.00
2016-09-21T02:09:52.564Z,0.00
2016-09-21T02:10:53.085Z,0.00
2016-09-21T02:11:53.590Z,0.00
2016-09-21T02:12:54.102Z,0.00
2016-09-21T02:13:54.612Z,0.00
2016-09-21T02:14:55.124Z,0.00
2016-09-21T02:15:55.784Z,0.00
2016-09-21T02:16:56.152Z,0.00
2016-09-21T02:17:56.664Z,0.00
2016-09-21T02:18:57.185Z,0.00
2016-09-21T02:19:57.695Z,0.00
2016-09-21T02:20:58.214Z,0.00
2016-09-21T02:21:58.725Z,0.00
2016-09-21T02:22:59.239Z,0.00
2016-09-21T02:23:59.755Z,0.00
2016-09-21T02:25:00.261Z,0.00
2016-09-21T02:26:00.925Z,0.00
2016-09-21T02:27:01.281Z,0.00
2016-09-21T02:28:01.797Z,0.00
2016-09-21T02:29:02.311Z,0.00
2016-09-21T02:30:02.823Z,0.00
2016-09-21T02:31:03.336Z,0.00
2016-09-21T02:32:03.852Z,0.00
2016-09-21T02:33:04.507Z,0.00
2016-09-21T02:34:04.876Z,0.00
2016-09-21T02:35:05.380Z,0.00
2016-09-21T02:36:05.898Z,0.00
2016-09-21T02:37:06.407Z,0.00
2016-09-21T02:38:06.925Z,0.00
2016-09-21T02:39:07.583Z,0.00
2016-09-21T02:40:07.943Z,0.00
2016-09-21T02:41:08.459Z,0.00
2016-09-21T02:42:09.113Z,0.00
2016-09-21T02:43:09.480Z,0.00
2016-09-21T02:44:09.998Z,0.00
2016-09-21T02:45:10.506Z,0.00
2016-09-21T02:46:11.050Z,0.00
2016-09-21T02:47:11.682Z,0.00
2016-09-21T02:48:12.052Z,0.00
2016-09-21T02:49:12.562Z,0.00
2016-09-21T02:50:13.077Z,0.00
2016-09-21T02:51:13.590Z,0.00
2016-09-21T02:52:14.100Z,0.00
2016-09-21T02:53:14.628Z,0.00
2016-09-21T02:54:15.131Z,0.00
2016-09-21T02:55:15.653Z,0.00
2016-09-21T02:56:16.170Z,0.00
2016-09-21T02:57:16.684Z,0.00
2016-09-21T02:58:17.196Z,0.00
2016-09-21T02:59:17.861Z,0.00
2016-09-21T03:00:18.223Z,0.00
2016-09-21T03:01:18.737Z,0.00
2016-09-21T03:02:19.251Z,0.00
2016-09-21T03:03:19.766Z,0.00
2016-09-21T03:04:20.579Z,0.00
2016-09-21T03:05:20.795Z,0.00
2016-09-21T03:06:21.306Z,0.00
2016-09-21T03:07:21.816Z,0.00
2016-09-21T03:08:22.325Z,0.00
2016-09-21T03:09:22.916Z,0.00
2016-09-21T03:10:23.374Z,0.00
2016-09-21T03:11:23.867Z,0.00
2016-09-21T03:12:24.400Z,0.00
2016-09-21T03:13:24.889Z,0.00
2016-09-21T03:14:25.397Z,0.00
2016-09-21T03:15:25.907Z,0.00
2016-09-21T03:16:26.423Z,0.00
2016-09-21T03:17:27.083Z,0.00
2016-09-21T03:18:27.591Z,0.00
2016-09-21T03:19:27.955Z,0.00
2016-09-21T03:20:28.463Z,0.00
2016-09-21T03:21:28.983Z,0.00
2016-09-21T03:22:29.488Z,0.00
2016-09-21T03:23:29.998Z,0.00
2016-09-21T03:24:30.508Z,0.00
2016-09-21T03:25:31.025Z,0.00
2016-09-21T03:26:31.837Z,0.00
2016-09-21T03:27:32.052Z,0.00
2016-09-21T03:28:32.564Z,0.00
2016-09-21T03:29:33.075Z,0.00
2016-09-21T03:30:33.738Z,0.00
2016-09-21T03:31:34.111Z,0.00
2016-09-21T03:32:34.622Z,0.00
2016-09-21T03:33:35.137Z,0.00
2016-09-21T03:34:35.686Z,0.00
2016-09-21T03:35:36.321Z,0.00
2016-09-21T03:36:36.682Z,0.00
2016-09-21T03:37:37.191Z,0.00
2016-09-21T03:38:37.704Z,0.00
2016-09-21T03:39:38.219Z,0.00
2016-09-21T03:40:38.731Z,0.00
2016-09-21T03:41:39.245Z,0.00
2016-09-21T03:42:39.758Z,0.00
2016-09-21T03:43:40.324Z,0.00
2016-09-21T03:44:40.783Z,0.00
2016-09-21T03:45:41.290Z,0.00
2016-09-21T03:46:41.809Z,0.00
2016-09-21T03:47:42.337Z,0.00
2016-09-21T03:48:42.831Z,0.00
2016-09-21T03:49:43.490Z,0.00
2016-09-21T03:50:43.852Z,0.00
2016-09-21T03:51:44.515Z,0.00
2016-09-21T03:52:45.176Z,0.00
2016-09-21T03:53:45.540Z,0.00
2016-09-21T03:54:45.902Z,0.00
2016-09-21T03:55:46.421Z,0.00
2016-09-21T03:56:46.951Z,0.00
2016-09-21T03:57:47.431Z,0.00
2016-09-21T03:58:47.944Z,0.00
2016-09-21T03:59:48.605Z,0.00
2016-09-21T04:00:48.972Z,0.00
2016-09-21T04:01:49.637Z,0.00
2016-09-21T04:02:50.019Z,0.00
2016-09-21T04:03:50.512Z,0.00
2016-09-21T04:04:51.027Z,0.00
2016-09-21T04:05:51.550Z,0.00
2016-09-21T04:06:52.205Z,0.00
2016-09-21T04:07:52.573Z,0.00
2016-09-21T04:08:53.245Z,0.00
2016-09-21T04:09:53.760Z,0.00
2016-09-21T04:10:54.127Z,0.00
2016-09-21T04:11:54.648Z,0.00
2016-09-21T04:12:55.153Z,0.00
2016-09-21T04:13:55.668Z,0.00
2016-09-21T04:14:56.180Z,0.00
2016-09-21T04:15:56.847Z,0.00
2016-09-21T04:16:57.207Z,0.00
2016-09-21T04:17:57.718Z,0.00
2016-09-21T04:18:58.230Z,0.00
2016-09-21T04:19:58.747Z,0.00
2016-09-21T04:20:59.258Z,0.00
2016-09-21T04:21:59.769Z,0.00
2016-09-21T04:23:00.283Z,0.00
2016-09-21T04:24:00.790Z,0.00
2016-09-21T04:25:01.455Z,0.00
2016-09-21T04:26:01.819Z,0.00
2016-09-21T04:27:02.327Z,0.00
2016-09-21T04:28:02.842Z,0.00
2016-09-21T04:29:03.355Z,0.00
2016-09-21T04:30:03.866Z,0.00
2016-09-21T04:31:04.384Z,0.00
2016-09-21T04:32:04.899Z,0.00
2016-09-21T04:33:05.398Z,0.00
2016-09-21T04:34:05.912Z,0.00
2016-09-21T04:35:06.421Z,0.00
2016-09-21T04:36:06.947Z,0.00
2016-09-21T04:37:09.104Z,0.00
2016-09-21T04:38:07.966Z,0.00
2016-09-21T04:39:08.472Z,0.00
2016-09-21T04:40:09.139Z,0.00
2016-09-21T04:41:09.505Z,0.00
2016-09-21T04:42:10.011Z,0.00
2016-09-21T04:43:10.528Z,0.00
2016-09-21T04:44:11.059Z,0.00
2016-09-21T04:45:11.556Z,0.00
2016-09-21T04:46:12.071Z,0.00
2016-09-21T04:47:12.590Z,0.00
2016-09-21T04:48:13.103Z,0.00
2016-09-21T04:49:13.767Z,0.00
2016-09-21T04:50:14.129Z,0.00
2016-09-21T04:51:14.646Z,0.00
2016-09-21T04:52:15.317Z,0.00
2016-09-21T04:53:15.662Z,0.00
2016-09-21T04:54:16.170Z,0.00
2016-09-21T04:55:16.696Z,0.00
2016-09-21T04:56:17.206Z,0.00
2016-09-21T04:57:17.705Z,0.00
2016-09-21T04:58:18.370Z,0.00
2016-09-21T04:59:18.733Z,0.00
2016-09-21T05:00:19.250Z,0.00
2016-09-21T05:01:19.765Z,0.00
2016-09-21T05:02:20.280Z,0.00
2016-09-21T05:03:20.794Z,0.00
2016-09-21T05:04:21.309Z,0.00
2016-09-21T05:05:21.820Z,0.00
2016-09-21T05:06:22.332Z,0.00
2016-09-21T05:07:22.839Z,0.00
2016-09-21T05:08:23.351Z,0.00
2016-09-21T05:09:24.012Z,0.00
2016-09-21T05:10:24.376Z,0.00
2016-09-21T05:11:24.888Z,0.00
2016-09-21T05:12:25.402Z,0.00
2016-09-21T05:13:25.913Z,0.00
2016-09-21T05:14:26.455Z,0.00
2016-09-21T05:15:26.934Z,1.00
2016-09-21T05:16:27.453Z,1.00
2016-09-21T05:17:27.958Z,1.00
2016-09-21T05:18:28.619Z,1.00
2016-09-21T05:19:28.981Z,1.00
2016-09-21T05:20:29.498Z,1.00
2016-09-21T05:21:30.011Z,1.00
2016-09-21T05:22:30.532Z,1.00
2016-09-21T05:23:31.199Z,1.00
2016-09-21T05:24:31.594Z,1.00
2016-09-21T05:25:32.078Z,2.00
2016-09-21T05:26:32.740Z,2.00
2016-09-21T05:27:33.106Z,2.00
2016-09-21T05:28:33.617Z,2.00
2016-09-21T05:29:34.133Z,2.00
2016-09-21T05:30:34.646Z,2.00
2016-09-21T05:31:35.157Z,2.00
2016-09-21T05:32:35.671Z,2.00
2016-09-21T05:33:36.337Z,2.00
2016-09-21T05:34:36.845Z,2.00
2016-09-21T05:35:37.216Z,3.00
2016-09-21T05:36:37.745Z,3.00
2016-09-21T05:37:38.235Z,3.00
2016-09-21T05:38:38.744Z,3.00
2016-09-21T05:39:39.262Z,3.00
2016-09-21T05:40:39.776Z,3.00
2016-09-21T05:41:40.286Z,3.00
2016-09-21T05:42:40.798Z,3.00
2016-09-21T05:43:41.454Z,4.00
2016-09-21T05:44:41.819Z,5.00
2016-09-21T05:45:42.328Z,5.00
2016-09-21T05:46:42.842Z,5.00
2016-09-21T05:47:43.353Z,5.00
2016-09-21T05:48:43.874Z,4.00
2016-09-21T05:49:44.377Z,4.00
2016-09-21T05:50:44.894Z,4.00
2016-09-21T05:51:45.400Z,4.00
2016-09-21T05:52:46.061Z,4.00
2016-09-21T05:53:46.422Z,4.00
2016-09-21T05:54:46.933Z,4.00
2016-09-21T05:55:47.442Z,4.00
2016-09-21T05:56:47.955Z,4.00
2016-09-21T05:57:48.470Z,5.00
2016-09-21T05:58:48.986Z,5.00
2016-09-21T05:59:49.505Z,5.00
2016-09-21T06:00:50.174Z,5.00
2016-09-21T06:01:50.686Z,5.00
2016-09-21T06:02:51.050Z,5.00
2016-09-21T06:03:51.568Z,5.00
2016-09-21T06:04:52.080Z,5.00
2016-09-21T06:05:52.587Z,5.00
2016-09-21T06:06:53.100Z,6.00
2016-09-21T06:07:53.612Z,6.00
2016-09-21T06:08:54.273Z,6.00
2016-09-21T06:09:54.626Z,6.00
2016-09-21T06:10:55.138Z,6.00
2016-09-21T06:11:55.647Z,6.00
2016-09-21T06:12:56.186Z,6.00
2016-09-21T06:13:56.679Z,6.00
2016-09-21T06:14:57.186Z,6.00
2016-09-21T06:15:57.699Z,7.00
2016-09-21T06:16:58.363Z,7.00
2016-09-21T06:17:58.724Z,7.00
2016-09-21T06:18:59.390Z,7.00
2016-09-21T06:19:59.753Z,7.00
2016-09-21T06:21:00.276Z,8.00
2016-09-21T06:22:00.775Z,9.00
2016-09-21T06:23:01.294Z,12.00
2016-09-21T06:24:01.801Z,13.00
2016-09-21T06:25:02.312Z,14.00
2016-09-21T06:26:02.826Z,14.00
2016-09-21T06:27:03.490Z,14.00
2016-09-21T06:28:03.850Z,11.00
2016-09-21T06:29:04.359Z,12.00
2016-09-21T06:30:04.870Z,11.00
2016-09-21T06:31:05.385Z,10.00
2016-09-21T06:32:05.893Z,9.00
2016-09-21T06:33:06.410Z,9.00
2016-09-21T06:34:06.924Z,8.00
2016-09-21T06:35:07.593Z,9.00
2016-09-21T06:36:08.107Z,9.00
2016-09-21T06:37:08.473Z,9.00
2016-09-21T06:38:08.991Z,9.00
2016-09-21T06:39:09.506Z,9.00
2016-09-21T06:40:10.026Z,10.00
2016-09-21T06:41:10.550Z,10.00
2016-09-21T06:42:11.201Z,11.00
2016-09-21T06:43:11.717Z,11.00
2016-09-21T06:44:12.092Z,11.00
2016-09-21T06:45:12.586Z,11.00
2016-09-21T06:46:13.120Z,11.00
2016-09-21T06:47:13.606Z,13.00
2016-09-21T06:48:14.117Z,15.00
2016-09-21T06:49:14.629Z,16.00
2016-09-21T06:50:15.139Z,18.00
2016-09-21T06:51:15.654Z,20.00
2016-09-21T06:52:16.171Z,21.00
2016-09-21T06:53:16.681Z,22.00
2016-09-21T06:54:17.188Z,23.00
2016-09-21T06:55:17.700Z,24.00
2016-09-21T06:56:18.365Z,23.00
2016-09-21T06:57:18.729Z,23.00
2016-09-21T06:58:19.236Z,24.00
2016-09-21T06:59:19.749Z,26.00
2016-09-21T07:00:20.264Z,27.00
2016-09-21T07:01:20.922Z,27.00
2016-09-21T07:02:21.435Z,27.00
2016-09-21T07:03:23.452Z,27.00
2016-09-21T07:04:22.330Z,27.00
2016-09-21T07:05:22.817Z,27.00
2016-09-21T07:06:23.331Z,27.00
2016-09-21T07:07:23.846Z,27.00
2016-09-21T07:08:24.358Z,25.00
2016-09-21T07:09:24.867Z,27.00
2016-09-21T07:10:25.385Z,28.00
2016-09-21T07:11:25.895Z,28.00
2016-09-21T07:12:26.557Z,28.00
2016-09-21T07:13:26.922Z,28.00
2016-09-21T07:14:27.462Z,28.00
2016-09-21T07:15:27.952Z,28.00
2016-09-21T07:16:28.470Z,27.00
2016-09-21T07:17:28.986Z,29.00
2016-09-21T07:18:29.505Z,29.00
2016-09-21T07:19:30.012Z,28.00
2016-09-21T07:20:30.680Z,28.00
2016-09-21T07:21:31.045Z,27.00
2016-09-21T07:22:31.557Z,27.00
2016-09-21T07:23:32.063Z,30.00
2016-09-21T07:24:32.568Z,30.00
2016-09-21T07:25:33.085Z,30.00
2016-09-21T07:26:33.586Z,30.00
2016-09-21T07:27:34.100Z,29.00
2016-09-21T07:28:34.617Z,29.00
2016-09-21T07:29:35.122Z,29.00
2016-09-21T07:30:35.792Z,29.00
2016-09-21T07:31:36.153Z,29.00
2016-09-21T07:32:36.693Z,29.00
2016-09-21T07:33:37.326Z,30.00
2016-09-21T07:34:37.689Z,29.00
2016-09-21T07:35:38.205Z,30.00
2016-09-21T07:36:38.714Z,30.00
2016-09-21T07:37:39.380Z,30.00
2016-09-21T07:38:39.735Z,31.00
2016-09-21T07:39:40.276Z,31.00
2016-09-21T07:40:40.760Z,31.00
2016-09-21T07:41:41.422Z,32.00
2016-09-21T07:42:41.781Z,32.00
2016-09-21T07:43:42.292Z,32.00
2016-09-21T07:44:42.805Z,32.00
2016-09-21T07:45:43.320Z,33.00
2016-09-21T07:46:43.979Z,33.00
2016-09-21T07:47:44.357Z,33.00
2016-09-21T07:48:44.856Z,33.00
2016-09-21T07:49:45.363Z,33.00
2016-09-21T07:50:46.024Z,33.00
2016-09-21T07:51:46.395Z,33.00
2016-09-21T07:52:46.912Z,33.00
2016-09-21T07:53:47.446Z,33.00
2016-09-21T07:54:47.944Z,33.00
2016-09-21T07:55:48.456Z,33.00
2016-09-21T07:56:48.972Z,33.00
2016-09-21T07:57:49.484Z,33.00
2016-09-21T07:58:50.147Z,33.00
2016-09-21T07:59:50.504Z,33.00
2016-09-21T08:00:51.018Z,33.00
2016-09-21T08:01:51.530Z,34.00
2016-09-21T08:02:52.045Z,34.00
2016-09-21T08:03:52.555Z,34.00
2016-09-21T08:04:53.099Z,34.00
2016-09-21T08:05:53.579Z,34.00
2016-09-21T08:06:54.094Z,34.00
2016-09-21T08:07:54.602Z,36.00
2016-09-21T08:08:55.121Z,35.00
2016-09-21T08:09:55.632Z,35.00
2016-09-21T08:10:56.179Z,35.00
2016-09-21T08:11:56.653Z,36.00
2016-09-21T08:12:57.192Z,35.00
2016-09-21T08:13:57.686Z,35.00
2016-09-21T08:14:58.347Z,36.00
2016-09-21T08:15:58.706Z,37.00
2016-09-21T08:16:59.216Z,36.00
2016-09-21T08:17:59.735Z,35.00
2016-09-21T08:19:00.243Z,35.00
2016-09-21T08:20:00.759Z,35.00
2016-09-21T08:21:01.271Z,35.00
2016-09-21T08:22:02.318Z,36.00
2016-09-21T08:23:02.303Z,36.00
2016-09-21T08:24:02.814Z,36.00
2016-09-21T08:25:03.313Z,36.00
2016-09-21T08:26:03.825Z,37.00
2016-09-21T08:27:04.340Z,37.00
2016-09-21T08:28:04.849Z,37.00
2016-09-21T08:29:05.369Z,37.00
2016-09-21T08:30:05.885Z,37.00
2016-09-21T08:31:06.404Z,37.00
2016-09-21T08:32:06.912Z,37.00
2016-09-21T08:33:07.424Z,37.00
2016-09-21T08:34:07.932Z,37.00
2016-09-21T08:35:08.442Z,37.00
2016-09-21T08:36:08.980Z,38.00
2016-09-21T08:37:09.468Z,38.00
2016-09-21T08:38:09.985Z,38.00
2016-09-21T08:39:10.522Z,38.00
2016-09-21T08:40:11.039Z,39.00
2016-09-21T08:41:11.548Z,39.00
2016-09-21T08:42:12.030Z,39.00
2016-09-21T08:43:12.693Z,39.00
2016-09-21T08:44:13.057Z,37.00
2016-09-21T08:45:13.563Z,35.00
2016-09-21T08:46:14.088Z,38.00
2016-09-21T08:47:14.733Z,40.00
2016-09-21T08:48:15.092Z,40.00
2016-09-21T08:49:15.761Z,40.00
2016-09-21T08:50:16.273Z,40.00
2016-09-21T08:51:16.633Z,40.00
2016-09-21T08:52:17.163Z,40.00
2016-09-21T08:53:17.657Z,41.00
2016-09-21T08:54:18.169Z,41.00
2016-09-21T08:55:18.863Z,41.00
2016-09-21T08:56:19.191Z,41.00
2016-09-21T08:57:19.709Z,41.00
2016-09-21T08:58:20.216Z,41.00
2016-09-21T08:59:20.729Z,41.00
2016-09-21T09:00:21.244Z,41.00
2016-09-21T09:01:21.758Z,41.00
2016-09-21T09:02:22.272Z,41.00
2016-09-21T09:03:22.783Z,40.00
2016-09-21T09:04:23.297Z,41.00
2016-09-21T09:05:23.820Z,41.00
2016-09-21T09:06:24.338Z,41.00
2016-09-21T09:07:24.999Z,41.00
2016-09-21T09:08:25.362Z,41.00
2016-09-21T09:09:25.876Z,41.00
2016-09-21T09:10:26.396Z,41.00
2016-09-21T09:11:26.902Z,42.00
2016-09-21T09:12:27.558Z,42.00
2016-09-21T09:13:27.940Z,42.00
2016-09-21T09:14:28.433Z,42.00
2016-09-21T09:15:28.946Z,42.00
2016-09-21T09:16:29.455Z,42.00
2016-09-21T09:17:29.967Z,42.00
2016-09-21T09:18:30.481Z,42.00
2016-09-21T09:19:30.995Z,43.00
2016-09-21T09:20:31.511Z,43.00
2016-09-21T09:21:32.172Z,44.00
2016-09-21T09:22:32.534Z,44.00
2016-09-21T09:23:33.053Z,44.00
2016-09-21T09:24:33.559Z,44.00
2016-09-21T09:25:34.072Z,44.00
2016-09-21T09:26:34.582Z,44.00
2016-09-21T09:27:35.098Z,45.00
2016-09-21T09:28:35.609Z,44.00
2016-09-21T09:29:36.289Z,46.00
2016-09-21T09:30:36.639Z,47.00
2016-09-21T09:31:37.149Z,47.00
2016-09-21T09:32:37.668Z,47.00
2016-09-21T09:33:38.327Z,48.00
2016-09-21T09:34:38.690Z,48.00
2016-09-21T09:35:41.000Z,48.00
2016-09-21T09:36:39.710Z,49.00
2016-09-21T09:37:40.224Z,50.00
2016-09-21T09:38:40.884Z,53.00
2016-09-21T09:39:41.274Z,54.00
2016-09-21T09:40:41.760Z,40.00
2016-09-21T09:41:42.277Z,47.00
2016-09-21T09:42:42.800Z,53.00
2016-09-21T09:43:43.465Z,53.00
2016-09-21T09:44:43.826Z,29.00
2016-09-21T09:45:44.486Z,27.00
2016-09-21T09:46:44.876Z,27.00
2016-09-21T09:47:45.362Z,34.00
2016-09-21T09:48:46.017Z,29.00
2016-09-21T09:49:46.383Z,29.00
2016-09-21T09:50:46.898Z,29.00
2016-09-21T09:51:47.394Z,35.00
2016-09-21T09:52:47.916Z,32.00
2016-09-21T09:53:48.425Z,39.00
2016-09-21T09:54:48.930Z,42.00
2016-09-21T09:55:49.438Z,39.00
2016-09-21T09:56:49.948Z,59.00
2016-09-21T09:57:50.462Z,53.00
2016-09-21T09:58:50.980Z,37.00
2016-09-21T09:59:51.490Z,52.00
2016-09-21T10:00:52.003Z,32.00
2016-09-21T10:01:52.514Z,42.00
2016-09-21T10:02:53.030Z,39.00
2016-09-21T10:03:53.538Z,47.00
2016-09-21T10:04:54.052Z,39.00
2016-09-21T10:05:55.911Z,33.00
2016-09-21T10:06:55.073Z,29.00
2016-09-21T10:07:55.734Z,29.00
2016-09-21T10:08:56.097Z,28.00
2016-09-21T10:09:56.607Z,28.00
2016-09-21T10:10:57.120Z,28.00
2016-09-21T10:11:57.779Z,28.00
2016-09-21T10:12:58.142Z,28.00
2016-09-21T10:13:58.650Z,29.00
2016-09-21T10:14:59.160Z,29.00
2016-09-21T10:15:59.679Z,29.00
2016-09-21T10:17:00.186Z,30.00
2016-09-21T10:18:00.703Z,31.00
2016-09-21T10:19:01.218Z,30.00
2016-09-21T10:20:01.735Z,31.00
2016-09-21T10:21:02.248Z,31.00
2016-09-21T10:22:02.768Z,34.00
2016-09-21T10:23:03.307Z,35.00
2016-09-21T10:24:03.794Z,33.00
2016-09-21T10:25:04.311Z,32.00
2016-09-21T10:26:04.819Z,33.00
2016-09-21T10:27:05.636Z,34.00
2016-09-21T10:28:05.843Z,34.00
2016-09-21T10:29:06.664Z,40.00
2016-09-21T10:40:12.248Z,36.00
2016-09-21T10:41:12.757Z,39.00
2016-09-21T10:42:13.268Z,48.00
2016-09-21T10:43:13.779Z,51.00
2016-09-21T10:44:14.289Z,41.00
2016-09-21T10:45:14.803Z,51.00
2016-09-21T10:46:15.315Z,48.00
2016-09-21T10:47:15.835Z,43.00
2016-09-21T10:48:16.346Z,47.00
2016-09-21T10:49:16.861Z,42.00
2016-09-21T10:50:17.380Z,50.00
2016-09-21T10:51:18.186Z,45.00
2016-09-21T10:52:18.404Z,56.00
2016-09-21T10:53:18.931Z,59.00
2016-09-21T10:54:20.175Z,50.00
2016-09-21T10:55:19.934Z,50.00
2016-09-21T10:56:20.596Z,48.00
2016-09-21T10:57:20.955Z,48.00
2016-09-21T10:58:21.464Z,48.00
2016-09-21T10:59:21.973Z,44.00
2016-09-21T11:00:22.631Z,66.00
2016-09-21T11:01:23.012Z,44.00
2016-09-21T11:02:23.501Z,57.00
2016-09-21T11:03:24.021Z,47.00
2016-09-21T11:04:24.523Z,53.00
2016-09-21T11:05:25.033Z,38.00
2016-09-21T11:06:25.547Z,49.00
2016-09-21T11:07:26.062Z,49.00
2016-09-21T11:08:26.575Z,44.00
2016-09-21T11:09:27.089Z,41.00
2016-09-21T11:10:27.598Z,54.00
2016-09-21T11:11:28.109Z,39.00
2016-09-21T11:12:28.773Z,41.00
2016-09-21T11:13:29.129Z,49.00
2016-09-21T11:14:31.297Z,48.00
2016-09-21T11:16:30.668Z,48.00
2016-09-21T11:17:31.343Z,60.00
2016-09-21T11:18:31.685Z,75.00
2016-09-21T11:19:32.197Z,55.00
2016-09-21T11:20:32.707Z,66.00
2016-09-21T11:21:33.228Z,74.00
2016-09-21T11:22:34.627Z,56.00
2016-09-21T11:23:34.236Z,44.00
2016-09-21T11:24:34.898Z,72.00
2016-09-21T11:25:35.265Z,60.00
2016-09-21T11:26:35.935Z,79.00
2016-09-21T11:27:36.303Z,81.00
2016-09-21T11:28:36.988Z,77.00
2016-09-21T11:29:37.357Z,84.00
2016-09-21T11:30:37.849Z,81.00
2016-09-21T11:31:38.354Z,62.00
2016-09-21T11:32:38.868Z,63.00
2016-09-21T11:33:39.542Z,76.00
2016-09-21T11:34:40.042Z,81.00
2016-09-21T11:35:40.405Z,81.00
2016-09-21T11:36:40.914Z,72.00
2016-09-21T11:37:41.426Z,77.00
2016-09-21T11:38:41.938Z,79.00
2016-09-21T11:39:42.458Z,74.00
2016-09-21T11:40:42.958Z,79.00
2016-09-21T11:41:43.466Z,76.00
2016-09-21T11:42:43.982Z,82.00
2016-09-21T11:43:44.511Z,63.00
2016-09-21T11:44:46.967Z,64.00
2016-09-21T11:45:45.522Z,58.00
2016-09-21T11:46:46.026Z,77.00
2016-09-21T11:47:46.543Z,75.00
2016-09-21T11:48:47.066Z,70.00
2016-09-21T11:49:47.717Z,65.00
2016-09-21T11:50:48.081Z,68.00
2016-09-21T11:51:48.736Z,69.00
2016-09-21T11:52:49.102Z,77.00
2016-09-21T11:53:49.609Z,79.00
2016-09-21T11:54:50.120Z,79.00
2016-09-21T11:55:50.634Z,76.00
2016-09-21T11:56:51.145Z,78.00
2016-09-21T11:57:51.655Z,67.00
2016-09-21T11:58:52.169Z,80.00
2016-09-21T11:59:52.840Z,59.00
2016-09-21T12:00:53.220Z,51.00
2016-09-21T12:01:53.714Z,50.00
2016-09-21T12:02:55.881Z,61.00
2016-09-21T12:03:54.741Z,59.00
2016-09-21T12:04:55.257Z,67.00
2016-09-21T12:05:55.765Z,72.00
2016-09-21T12:06:56.282Z,74.00
2016-09-21T12:07:56.790Z,73.00
2016-09-21T12:08:57.295Z,74.00
2016-09-21T12:09:57.804Z,73.00
2016-09-21T12:10:58.311Z,73.00
2016-09-21T12:11:58.827Z,73.00
2016-09-21T12:12:59.337Z,73.00
2016-09-21T12:13:59.995Z,72.00
2016-09-21T12:15:00.357Z,72.00
2016-09-21T12:16:00.886Z,71.00
2016-09-21T12:17:01.378Z,71.00
2016-09-21T12:18:02.039Z,71.00
2016-09-21T12:19:02.398Z,71.00
2016-09-21T12:20:02.921Z,71.00
2016-09-21T12:21:03.564Z,71.00
2016-09-21T12:22:03.924Z,71.00
2016-09-21T12:23:04.434Z,72.00
2016-09-21T12:24:04.946Z,72.00
2016-09-21T12:25:05.459Z,72.00
2016-09-21T12:26:05.972Z,72.00
2016-09-21T12:27:06.482Z,72.00
2016-09-21T12:28:06.995Z,72.00
2016-09-21T12:29:07.507Z,73.00
2016-09-21T12:30:08.020Z,73.00
2016-09-21T12:31:08.526Z,73.00
2016-09-21T12:32:09.039Z,74.00
2016-09-21T12:33:11.349Z,74.00
2016-09-21T12:34:10.060Z,74.00
2016-09-21T12:35:10.724Z,74.00
2016-09-21T12:36:11.090Z,74.00
2016-09-21T12:37:11.592Z,74.00
2016-09-21T12:38:12.102Z,74.00
2016-09-21T12:39:12.642Z,75.00
2016-09-21T12:40:13.300Z,75.00
2016-09-21T12:41:13.646Z,75.00
2016-09-21T12:42:14.160Z,75.00
2016-09-21T12:43:14.691Z,75.00
2016-09-21T12:44:15.200Z,75.00
2016-09-21T12:45:15.697Z,75.00
2016-09-21T12:46:16.212Z,75.00
2016-09-21T12:47:16.724Z,76.00
2016-09-21T12:48:17.387Z,76.00
2016-09-21T12:49:17.750Z,77.00
2016-09-21T12:50:18.409Z,77.00
2016-09-21T12:51:18.792Z,77.00
2016-09-21T12:52:19.427Z,77.00
2016-09-21T12:53:19.788Z,77.00
2016-09-21T12:54:20.326Z,77.00
2016-09-21T12:55:20.964Z,78.00
2016-09-21T12:56:21.326Z,78.00
2016-09-21T12:57:21.989Z,79.00
2016-09-21T12:58:22.359Z,79.00
2016-09-21T12:59:22.862Z,79.00
2016-09-21T13:00:23.532Z,79.00
2016-09-21T13:01:23.886Z,80.00
2016-09-21T13:02:24.400Z,80.00
2016-09-21T13:03:24.907Z,80.00
2016-09-21T13:04:25.423Z,81.00
2016-09-21T13:06:26.450Z,81.00
2016-09-21T13:07:26.957Z,81.00
2016-09-21T13:08:27.466Z,82.00
2016-09-21T13:09:27.983Z,82.00
2016-09-21T13:11:29.148Z,82.00
2016-09-21T13:12:29.538Z,82.00
2016-09-21T13:13:30.024Z,82.00
2016-09-21T13:14:30.541Z,82.00
2016-09-21T13:15:31.053Z,82.00
2016-09-21T13:16:31.566Z,83.00
2016-09-21T13:17:32.088Z,83.00
2016-09-21T13:18:32.603Z,83.00
2016-09-21T13:19:33.122Z,83.00
2016-09-21T13:21:34.146Z,83.00
2016-09-21T13:22:34.654Z,84.00
2016-09-21T13:23:35.178Z,84.00
2016-09-21T13:24:35.692Z,85.00
2016-09-21T13:25:36.205Z,85.00
2016-09-21T13:26:36.715Z,85.00